sensor_id;sensor_type;location;lat;lon;timestamp;pressure;altitude;pressure_sealevel;temperature;humidity
2761;BME280;15420;48.636;9.798;2022-07-01T00:01:47;96743.75;;;20.36;100.00
2761;BME280;15420;48.636;9.798;2022-07-01T00:04:16;96742.09;;;20.32;100.00
2761;BME280;15420;48.636;9.798;2022-07-01T00:06:42;96748.31;;;20.24;100.00
2761;BME280;15420;48.636;9.798;2022-07-01T00:09:11;96743.19;;;20.18;100.00
2761;BME280;15420;48.636;9.798;2022-07-01T00:11:37;96743.31;;;20.12;100.00
2761;BME280;15420;48.636;9.798;2022-07-01T00:14:03;96737.28;;;20.07;100.00
2761;BME280;15420;48.636;9.798;2022-07-01T00:16:36;96732.13;;;20.03;100.00
2761;BME280;15420;48.636;9.798;2022-07-01T00:19:03;96738.28;;;20.00;100.00
2761;BME280;15420;48.636;9.798;2022-07-01T00:21:32;96719.25;;;19.90;100.00
2761;BME280;15420;48.636;9.798;2022-07-01T00:23:59;96708.91;;;19.83;100.00
2761;BME280;15420;48.636;9.798;2022-07-01T00:26:25;96662.06;;;19.72;100.00
2761;BME280;15420;48.636;9.798;2022-07-01T00:28:52;96636.94;;;19.64;100.00
2761;BME280;15420;48.636;9.798;2022-07-01T00:31:18;96609.19;;;19.56;100.00
2761;BME280;15420;48.636;9.798;2022-07-01T00:33:44;96603.19;;;19.48;100.00
2761;BME280;15420;48.636;9.798;2022-07-01T00:36:17;96586.81;;;19.37;100.00
2761;BME280;15420;48.636;9.798;2022-07-01T00:38:46;96592.19;;;19.28;100.00
2761;BME280;15420;48.636;9.798;2022-07-01T00:41:12;96604.53;;;19.20;100.00
2761;BME280;15420;48.636;9.798;2022-07-01T00:43:38;96615.00;;;19.17;100.00
2761;BME280;15420;48.636;9.798;2022-07-01T00:46:06;96625.53;;;19.12;100.00
2761;BME280;15420;48.636;9.798;2022-07-01T00:48:32;96609.94;;;19.06;100.00
2761;BME280;15420;48.636;9.798;2022-07-01T00:51:02;96608.22;;;19.05;100.00
2761;BME280;15420;48.636;9.798;2022-07-01T00:53:32;96619.59;;;19.01;100.00
2761;BME280;15420;48.636;9.798;2022-07-01T00:55:58;96644.91;;;18.98;100.00
2761;BME280;15420;48.636;9.798;2022-07-01T00:58:26;96654.53;;;18.94;100.00
2761;BME280;15420;48.636;9.798;2022-07-01T01:00:55;96638.88;;;18.92;100.00
2761;BME280;15420;48.636;9.798;2022-07-01T01:03:21;96629.38;;;18.88;100.00
2761;BME280;15420;48.636;9.798;2022-07-01T01:05:49;96623.28;;;18.88;100.00
2761;BME280;15420;48.636;9.798;2022-07-01T01:08:19;96628.53;;;18.86;100.00
2761;BME280;15420;48.636;9.798;2022-07-01T01:10:50;96624.22;;;18.84;100.00
2761;BME280;15420;48.636;9.798;2022-07-01T01:13:16;96625.97;;;18.82;100.00
2761;BME280;15420;48.636;9.798;2022-07-01T01:15:44;96624.28;;;18.79;100.00
2761;BME280;15420;48.636;9.798;2022-07-01T01:18:13;96618.22;;;18.77;100.00
2761;BME280;15420;48.636;9.798;2022-07-01T01:20:39;96620.88;;;18.74;100.00
2761;BME280;15420;48.636;9.798;2022-07-01T01:23:06;96613.97;;;18.72;100.00
2761;BME280;15420;48.636;9.798;2022-07-01T01:25:37;96627.91;;;18.71;100.00
2761;BME280;15420;48.636;9.798;2022-07-01T01:28:06;96634.03;;;18.68;100.00
2761;BME280;15420;48.636;9.798;2022-07-01T01:30:32;96638.44;;;18.65;100.00
2761;BME280;15420;48.636;9.798;2022-07-01T01:33:01;96640.19;;;18.59;100.00
2761;BME280;15420;48.636;9.798;2022-07-01T01:35:30;96646.31;;;18.58;100.00
2761;BME280;15420;48.636;9.798;2022-07-01T01:38:00;96639.38;;;18.56;100.00
2761;BME280;15420;48.636;9.798;2022-07-01T01:40:28;96641.19;;;18.51;100.00
2761;BME280;15420;48.636;9.798;2022-07-01T01:42:54;96647.31;;;18.48;100.00
2761;BME280;15420;48.636;9.798;2022-07-01T01:45:20;96648.25;;;18.41;100.00
2761;BME280;15420;48.636;9.798;2022-07-01T01:47:47;96642.19;;;18.39;100.00
2761;BME280;15420;48.636;9.798;2022-07-01T01:50:14;96653.53;;;18.37;100.00
2761;BME280;15420;48.636;9.798;2022-07-01T01:52:41;96661.41;;;18.30;100.00
2761;BME280;15420;48.636;9.798;2022-07-01T01:55:09;96660.59;;;18.27;100.00
2761;BME280;15420;48.636;9.798;2022-07-01T01:57:41;96648.47;;;18.23;100.00
2761;BME280;15420;48.636;9.798;2022-07-01T02:00:08;96630.25;;;18.18;100.00
2761;BME280;15420;48.636;9.798;2022-07-01T02:02:37;96649.41;;;18.17;100.00
2761;BME280;15420;48.636;9.798;2022-07-01T02:05:08;96665.09;;;18.13;100.00
2761;BME280;15420;48.636;9.798;2022-07-01T02:07:36;96673.81;;;18.10;100.00
2761;BME280;15420;48.636;9.798;2022-07-01T02:10:03;96679.97;;;18.03;100.00
2761;BME280;15420;48.636;9.798;2022-07-01T02:12:29;96684.38;;;17.98;100.00
2761;BME280;15420;48.636;9.798;2022-07-01T02:15:00;96680.06;;;17.92;100.00
2761;BME280;15420;48.636;9.798;2022-07-01T02:17:28;96678.38;;;17.87;100.00
2761;BME280;15420;48.636;9.798;2022-07-01T02:19:55;96680.16;;;17.83;100.00
2761;BME280;15420;48.636;9.798;2022-07-01T02:22:21;96681.91;;;17.81;100.00
2761;BME280;15420;48.636;9.798;2022-07-01T02:24:49;96686.28;;;17.78;100.00
2761;BME280;15420;48.636;9.798;2022-07-01T02:27:16;96695.03;;;17.74;100.00
2761;BME280;15420;48.636;9.798;2022-07-01T02:29:42;96700.25;;;17.71;100.00
2761;BME280;15420;48.636;9.798;2022-07-01T02:32:11;96701.13;;;17.70;100.00
2761;BME280;15420;48.636;9.798;2022-07-01T02:34:37;96695.09;;;17.64;100.00
2761;BME280;15420;48.636;9.798;2022-07-01T02:37:06;96692.50;;;17.61;100.00
2761;BME280;15420;48.636;9.798;2022-07-01T02:39:37;96692.53;;;17.60;100.00
2761;BME280;15420;48.636;9.798;2022-07-01T02:42:11;96693.41;;;17.59;100.00
2761;BME280;15420;48.636;9.798;2022-07-01T02:44:55;96693.41;;;17.59;100.00
2761;BME280;15420;48.636;9.798;2022-07-01T02:47:22;96695.16;;;17.58;100.00
2761;BME280;15420;48.636;9.798;2022-07-01T02:49:48;96698.63;;;17.59;100.00
2761;BME280;15420;48.636;9.798;2022-07-01T02:52:17;96698.63;;;17.57;100.00
2761;BME280;15420;48.636;9.798;2022-07-01T02:54:47;96702.09;;;17.58;100.00
2761;BME280;15420;48.636;9.798;2022-07-01T02:57:14;96697.75;;;17.57;100.00
2761;BME280;15420;48.636;9.798;2022-07-01T02:59:40;96696.91;;;17.56;100.00
2761;BME280;15420;48.636;9.798;2022-07-01T03:02:09;96694.31;;;17.55;100.00
2761;BME280;15420;48.636;9.798;2022-07-01T03:04:35;96697.78;;;17.54;100.00
2761;BME280;15420;48.636;9.798;2022-07-01T03:07:03;96694.31;;;17.52;100.00
2761;BME280;15420;48.636;9.798;2022-07-01T03:09:29;96695.19;;;17.51;100.00
2761;BME280;15420;48.636;9.798;2022-07-01T03:11:55;96682.16;;;17.51;100.00
2761;BME280;15420;48.636;9.798;2022-07-01T03:14:22;96688.28;;;17.48;100.00
2761;BME280;15420;48.636;9.798;2022-07-01T03:16:48;96684.81;;;17.46;100.00
2761;BME280;15420;48.636;9.798;2022-07-01T03:19:14;96686.56;;;17.46;100.00
2761;BME280;15420;48.636;9.798;2022-07-01T03:21:41;96681.34;;;17.44;100.00
2761;BME280;15420;48.636;9.798;2022-07-01T03:24:07;96689.19;;;17.41;100.00
2761;BME280;15420;48.636;9.798;2022-07-01T03:26:36;96703.97;;;17.39;100.00
2761;BME280;15420;48.636;9.798;2022-07-01T03:29:02;96712.66;;;17.38;100.00
2761;BME280;15420;48.636;9.798;2022-07-01T03:31:28;96710.03;;;17.40;100.00
2761;BME280;15420;48.636;9.798;2022-07-01T03:33:57;96730.91;;;17.37;100.00
2761;BME280;15420;48.636;9.798;2022-07-01T03:36:23;96738.72;;;17.37;100.00
2761;BME280;15420;48.636;9.798;2022-07-01T03:38:54;96748.28;;;17.36;100.00
2761;BME280;15420;48.636;9.798;2022-07-01T03:41:23;96754.34;;;17.37;100.00
2761;BME280;15420;48.636;9.798;2022-07-01T03:43:53;96758.72;;;17.33;100.00
2761;BME280;15420;48.636;9.798;2022-07-01T03:46:22;96765.69;;;17.29;100.00
2761;BME280;15420;48.636;9.798;2022-07-01T03:48:50;96753.53;;;17.27;100.00
2761;BME280;15420;48.636;9.798;2022-07-01T03:51:19;96752.69;;;17.25;100.00
2761;BME280;15420;48.636;9.798;2022-07-01T03:53:45;96750.94;;;17.24;100.00
2761;BME280;15420;48.636;9.798;2022-07-01T03:56:46;96770.94;;;17.20;100.00
2761;BME280;15420;48.636;9.798;2022-07-01T03:59:15;96760.53;;;17.20;100.00
2761;BME280;15420;48.636;9.798;2022-07-01T04:01:41;96783.09;;;17.20;100.00
2761;BME280;15420;48.636;9.798;2022-07-01T04:04:07;96790.91;;;17.17;100.00
2761;BME280;15420;48.636;9.798;2022-07-01T04:06:36;96787.44;;;17.18;100.00
2761;BME280;15420;48.636;9.798;2022-07-01T04:09:05;96778.78;;;17.14;100.00
2761;BME280;15420;48.636;9.798;2022-07-01T04:11:34;96770.97;;;17.16;100.00
2761;BME280;15420;48.636;9.798;2022-07-01T04:14:02;96774.41;;;17.18;100.00
2761;BME280;15420;48.636;9.798;2022-07-01T04:16:28;96772.69;;;17.14;100.00
2761;BME280;15420;48.636;9.798;2022-07-01T04:18:56;96776.19;;;17.14;100.00
2761;BME280;15420;48.636;9.798;2022-07-01T04:21:22;96776.19;;;17.13;100.00
2761;BME280;15420;48.636;9.798;2022-07-01T04:24:09;96758.81;;;17.12;100.00
2761;BME280;15420;48.636;9.798;2022-07-01T04:26:35;96764.91;;;17.12;100.00
2761;BME280;15420;48.636;9.798;2022-07-01T04:29:02;96777.94;;;17.11;100.00
2761;BME280;15420;48.636;9.798;2022-07-01T04:31:33;96790.06;;;17.12;100.00
2761;BME280;15420;48.636;9.798;2022-07-01T04:34:00;96802.22;;;17.11;100.00
2761;BME280;15420;48.636;9.798;2022-07-01T04:36:26;96815.25;;;17.13;100.00
2761;BME280;15420;48.636;9.798;2022-07-01T04:38:57;96814.38;;;17.12;100.00
2761;BME280;15420;48.636;9.798;2022-07-01T04:41:24;96809.16;;;17.12;100.00
2761;BME280;15420;48.636;9.798;2022-07-01T04:44:11;96825.66;;;17.13;100.00
2761;BME280;15420;48.636;9.798;2022-07-01T04:46:37;96828.25;;;17.11;100.00
2761;BME280;15420;48.636;9.798;2022-07-01T04:49:03;96829.13;;;17.12;100.00
2761;BME280;15420;48.636;9.798;2022-07-01T04:51:30;96815.25;;;17.13;100.00
2761;BME280;15420;48.636;9.798;2022-07-01T04:54:01;96810.91;;;17.13;100.00
2761;BME280;15420;48.636;9.798;2022-07-01T04:56:29;96817.84;;;17.13;100.00
2761;BME280;15420;48.636;9.798;2022-07-01T04:58:56;96814.38;;;17.14;100.00
2761;BME280;15420;48.636;9.798;2022-07-01T05:01:24;96816.13;;;17.12;100.00
2761;BME280;15420;48.636;9.798;2022-07-01T05:03:51;96821.31;;;17.12;100.00
2761;BME280;15420;48.636;9.798;2022-07-01T05:06:19;96821.31;;;17.13;100.00
2761;BME280;15420;48.636;9.798;2022-07-01T05:08:46;96835.19;;;17.12;100.00
2761;BME280;15420;48.636;9.798;2022-07-01T05:11:14;96847.34;;;17.13;100.00
2761;BME280;15420;48.636;9.798;2022-07-01T05:13:40;96837.81;;;17.11;100.00
2761;BME280;15420;48.636;9.798;2022-07-01T05:16:06;96833.47;;;17.11;100.00
2761;BME280;15420;48.636;9.798;2022-07-01T05:18:35;96826.53;;;17.09;100.00
2761;BME280;15420;48.636;9.798;2022-07-01T05:21:20;96826.53;;;17.07;100.00
2761;BME280;15420;48.636;9.798;2022-07-01T05:24:05;96830.03;;;17.05;100.00
2761;BME280;15420;48.636;9.798;2022-07-01T05:26:32;96838.69;;;17.05;100.00
2761;BME280;15420;48.636;9.798;2022-07-01T05:28:58;96843.03;;;17.05;100.00
2761;BME280;15420;48.636;9.798;2022-07-01T05:31:24;96846.53;;;17.04;100.00
2761;BME280;15420;48.636;9.798;2022-07-01T05:33:50;96843.91;;;17.04;100.00
2761;BME280;15420;48.636;9.798;2022-07-01T05:36:17;96848.25;;;17.02;100.00
2761;BME280;15420;48.636;9.798;2022-07-01T05:38:43;96856.06;;;17.02;100.00
2761;BME280;15420;48.636;9.798;2022-07-01T05:41:11;96854.34;;;17.00;100.00
2761;BME280;15420;48.636;9.798;2022-07-01T05:43:38;96860.41;;;17.04;100.00
2761;BME280;15420;48.636;9.798;2022-07-01T05:46:04;96853.47;;;16.98;100.00
2761;BME280;15420;48.636;9.798;2022-07-01T05:48:30;96849.16;;;16.96;100.00
2761;BME280;15420;48.636;9.798;2022-07-01T05:50:58;96850.88;;;16.98;100.00
2761;BME280;15420;48.636;9.798;2022-07-01T05:53:24;96843.94;;;16.93;100.00
2761;BME280;15420;48.636;9.798;2022-07-01T05:55:52;96843.94;;;16.93;100.00
2761;BME280;15420;48.636;9.798;2022-07-01T05:58:18;96833.53;;;16.91;100.00
2761;BME280;15420;48.636;9.798;2022-07-01T06:00:46;96837.00;;;16.92;100.00
2761;BME280;15420;48.636;9.798;2022-07-01T06:03:15;96841.34;;;16.91;100.00
2761;BME280;15420;48.636;9.798;2022-07-01T06:05:42;96841.34;;;16.91;100.00
2761;BME280;15420;48.636;9.798;2022-07-01T06:08:13;96847.44;;;16.89;100.00
2761;BME280;15420;48.636;9.798;2022-07-01T06:10:39;96848.31;;;16.88;100.00
2761;BME280;15420;48.636;9.798;2022-07-01T06:13:05;96850.03;;;16.86;100.00
2761;BME280;15420;48.636;9.798;2022-07-01T06:15:32;96858.72;;;16.86;100.00
2761;BME280;15420;48.636;9.798;2022-07-01T06:17:58;96864.78;;;16.87;100.00
2761;BME280;15420;48.636;9.798;2022-07-01T06:20:27;96870.88;;;16.86;100.00
2761;BME280;15420;48.636;9.798;2022-07-01T06:22:54;96886.47;;;16.83;100.00
2761;BME280;15420;48.636;9.798;2022-07-01T06:25:22;96894.28;;;16.84;100.00
2761;BME280;15420;48.636;9.798;2022-07-01T06:27:48;96885.63;;;16.82;100.00
2761;BME280;15420;48.636;9.798;2022-07-01T06:30:15;96899.50;;;16.81;100.00
2761;BME280;15420;48.636;9.798;2022-07-01T06:32:41;96884.75;;;16.80;100.00
2761;BME280;15420;48.636;9.798;2022-07-01T06:35:12;96899.50;;;16.80;100.00
2761;BME280;15420;48.636;9.798;2022-07-01T06:37:38;96899.50;;;16.78;100.00
2761;BME280;15420;48.636;9.798;2022-07-01T06:40:08;96907.31;;;16.78;100.00
2761;BME280;15420;48.636;9.798;2022-07-01T06:42:36;96889.09;;;16.77;100.00
2761;BME280;15420;48.636;9.798;2022-07-01T06:45:05;96897.78;;;16.77;100.00
2761;BME280;15420;48.636;9.798;2022-07-01T06:47:31;96898.63;;;16.76;100.00
2761;BME280;15420;48.636;9.798;2022-07-01T06:50:00;96902.97;;;16.77;100.00
2761;BME280;15420;48.636;9.798;2022-07-01T06:52:28;96898.63;;;16.76;100.00
2761;BME280;15420;48.636;9.798;2022-07-01T06:54:59;96904.72;;;16.77;100.00
2761;BME280;15420;48.636;9.798;2022-07-01T06:57:29;96894.31;;;16.77;100.00
2761;BME280;15420;48.636;9.798;2022-07-01T06:59:58;96896.91;;;16.78;100.00
2761;BME280;15420;48.636;9.798;2022-07-01T07:02:24;96897.78;;;16.79;100.00
2761;BME280;15420;48.636;9.798;2022-07-01T07:04:52;96903.84;;;16.81;100.00
2761;BME280;15420;48.636;9.798;2022-07-01T07:07:24;96909.03;;;16.84;100.00
2761;BME280;15420;48.636;9.798;2022-07-01T07:09:52;96917.72;;;16.83;100.00
2761;BME280;15420;48.636;9.798;2022-07-01T07:12:21;96922.91;;;16.84;100.00
2761;BME280;15420;48.636;9.798;2022-07-01T07:14:48;96922.06;;;16.85;100.00
2761;BME280;15420;48.636;9.798;2022-07-01T07:17:14;96925.53;;;16.86;100.00
2761;BME280;15420;48.636;9.798;2022-07-01T07:19:43;96948.94;;;16.87;100.00
2761;BME280;15420;48.636;9.798;2022-07-01T07:22:09;96950.69;;;16.88;100.00
2761;BME280;15420;48.636;9.798;2022-07-01T07:24:35;96957.63;;;16.86;100.00
2761;BME280;15420;48.636;9.798;2022-07-01T07:27:01;96953.28;;;16.87;100.00
2761;BME280;15420;48.636;9.798;2022-07-01T07:29:30;96967.16;;;16.86;100.00
2761;BME280;15420;48.636;9.798;2022-07-01T07:31:56;96956.75;;;16.86;100.00
2761;BME280;15420;48.636;9.798;2022-07-01T07:34:26;96956.75;;;16.86;100.00
2761;BME280;15420;48.636;9.798;2022-07-01T07:36:53;96954.16;;;16.87;100.00
2761;BME280;15420;48.636;9.798;2022-07-01T07:39:19;96953.28;;;16.88;100.00
2761;BME280;15420;48.636;9.798;2022-07-01T07:41:45;96955.00;;;16.89;100.00
2761;BME280;15420;48.636;9.798;2022-07-01T07:44:11;96956.75;;;16.90;100.00
2761;BME280;15420;48.636;9.798;2022-07-01T07:46:40;96962.81;;;16.92;100.00
2761;BME280;15420;48.636;9.798;2022-07-01T07:49:10;96950.66;;;16.93;100.00
2761;BME280;15420;48.636;9.798;2022-07-01T07:51:37;96952.41;;;16.92;100.00
2761;BME280;15420;48.636;9.798;2022-07-01T07:54:03;96963.69;;;16.93;100.00
2761;BME280;15420;48.636;9.798;2022-07-01T07:56:32;96971.50;;;16.94;100.00
2761;BME280;15420;48.636;9.798;2022-07-01T07:58:58;96984.50;;;16.93;100.00
2761;BME280;15420;48.636;9.798;2022-07-01T08:01:24;96986.25;;;16.94;100.00
2761;BME280;15420;48.636;9.798;2022-07-01T08:03:51;96989.72;;;16.94;100.00
2761;BME280;15420;48.636;9.798;2022-07-01T08:06:22;96990.59;;;16.93;100.00
2761;BME280;15420;48.636;9.798;2022-07-01T08:08:48;96993.19;;;16.93;100.00
2761;BME280;15420;48.636;9.798;2022-07-01T08:11:16;96986.25;;;16.94;100.00
2761;BME280;15420;48.636;9.798;2022-07-01T08:13:45;96974.97;;;16.95;100.00
2761;BME280;15420;48.636;9.798;2022-07-01T08:16:11;96968.88;;;16.96;100.00
2761;BME280;15420;48.636;9.798;2022-07-01T08:18:39;96964.56;;;16.99;100.00
2761;BME280;15420;48.636;9.798;2022-07-01T08:21:08;96956.75;;;17.01;100.00
2761;BME280;15420;48.636;9.798;2022-07-01T08:23:34;96960.22;;;17.00;100.00
2761;BME280;15420;48.636;9.798;2022-07-01T08:26:01;96976.69;;;17.00;100.00
2761;BME280;15420;48.636;9.798;2022-07-01T08:28:27;96980.16;;;17.03;100.00
2761;BME280;15420;48.636;9.798;2022-07-01T08:30:56;96984.50;;;17.00;100.00
2761;BME280;15420;48.636;9.798;2022-07-01T08:33:22;96987.97;;;17.01;100.00
2761;BME280;15420;48.636;9.798;2022-07-01T08:35:48;96984.50;;;17.02;100.00
2761;BME280;15420;48.636;9.798;2022-07-01T08:38:19;96981.91;;;17.04;100.00
2761;BME280;15420;48.636;9.798;2022-07-01T08:40:47;96974.97;;;17.03;100.00
2761;BME280;15420;48.636;9.798;2022-07-01T08:43:13;96973.22;;;17.05;100.00
2761;BME280;15420;48.636;9.798;2022-07-01T08:45:40;96960.19;;;17.05;100.00
2761;BME280;15420;48.636;9.798;2022-07-01T08:48:09;96969.75;;;17.07;100.00
2761;BME280;15420;48.636;9.798;2022-07-01T08:50:38;96974.97;;;17.07;100.00
2761;BME280;15420;48.636;9.798;2022-07-01T08:53:12;96979.28;;;17.10;100.00
2761;BME280;15420;48.636;9.798;2022-07-01T08:55:41;96989.72;;;17.08;100.00
2761;BME280;15420;48.636;9.798;2022-07-01T08:58:27;96987.09;;;17.07;100.00
2761;BME280;15420;48.636;9.798;2022-07-01T09:01:11;97005.34;;;17.07;100.00
2761;BME280;15420;48.636;9.798;2022-07-01T09:03:37;96997.53;;;17.08;100.00
2761;BME280;15420;48.636;9.798;2022-07-01T09:06:12;96991.44;;;17.11;100.00
2761;BME280;15420;48.636;9.798;2022-07-01T09:08:46;96992.31;;;17.13;100.00
2761;BME280;15420;48.636;9.798;2022-07-01T09:11:24;96985.38;;;17.13;100.00
2761;BME280;15420;48.636;9.798;2022-07-01T09:16:46;96996.63;;;17.17;100.00
2761;BME280;15420;48.636;9.798;2022-07-01T09:19:13;97000.09;;;17.19;100.00
2761;BME280;15420;48.636;9.798;2022-07-01T09:21:46;97005.31;;;17.20;100.00
2761;BME280;15420;48.636;9.798;2022-07-01T09:24:24;97009.66;;;17.26;100.00
2761;BME280;15420;48.636;9.798;2022-07-01T09:29:37;97027.00;;;17.24;100.00
2761;BME280;15420;48.636;9.798;2022-07-01T09:32:06;97033.09;;;17.24;100.00
2761;BME280;15420;48.636;9.798;2022-07-01T09:37:05;97026.16;;;17.26;100.00
2761;BME280;15420;48.636;9.798;2022-07-01T09:39:43;97033.97;;;17.28;100.00
2761;BME280;15420;48.636;9.798;2022-07-01T09:42:12;97023.53;;;17.26;100.00
2761;BME280;15420;48.636;9.798;2022-07-01T09:47:28;97018.34;;;17.23;100.00
2761;BME280;15420;48.636;9.798;2022-07-01T09:49:55;97017.47;;;17.23;100.00
2761;BME280;15420;48.636;9.798;2022-07-01T09:52:27;97014.00;;;17.22;100.00
2761;BME280;15420;48.636;9.798;2022-07-01T09:54:56;97028.75;;;17.20;100.00
2761;BME280;15420;48.636;9.798;2022-07-01T09:57:22;97040.03;;;17.21;100.00
2761;BME280;15420;48.636;9.798;2022-07-01T09:59:53;97035.69;;;17.20;100.00
2761;BME280;15420;48.636;9.798;2022-07-01T10:02:22;97034.84;;;17.18;100.00
2761;BME280;15420;48.636;9.798;2022-07-01T10:05:05;97039.19;;;17.19;100.00
2761;BME280;15420;48.636;9.798;2022-07-01T10:13:16;97037.44;;;17.18;100.00
2761;BME280;15420;48.636;9.798;2022-07-01T10:15:44;97032.22;;;17.18;100.00
2761;BME280;15420;48.636;9.798;2022-07-01T10:18:27;97040.91;;;17.21;100.00
2761;BME280;15420;48.636;9.798;2022-07-01T10:20:55;97017.47;;;17.20;100.00
2761;BME280;15420;48.636;9.798;2022-07-01T10:23:23;97029.63;;;17.21;100.00
2761;BME280;15420;48.636;9.798;2022-07-01T10:25:54;97035.69;;;17.23;100.00
2761;BME280;15420;48.636;9.798;2022-07-01T10:28:29;97054.78;;;17.22;100.00
2761;BME280;15420;48.636;9.798;2022-07-01T10:31:08;97057.41;;;17.22;100.00
2761;BME280;15420;48.636;9.798;2022-07-01T10:41:58;97090.38;;;17.21;100.00
2761;BME280;15420;48.636;9.798;2022-07-01T10:44:25;97086.91;;;17.18;100.00
2761;BME280;15420;48.636;9.798;2022-07-01T10:47:04;97072.16;;;17.20;100.00
2761;BME280;15420;48.636;9.798;2022-07-01T10:52:12;97079.97;;;17.24;100.00
2761;BME280;15420;48.636;9.798;2022-07-01T10:57:33;97057.41;;;17.26;100.00
2761;BME280;15420;48.636;9.798;2022-07-01T11:02:38;97103.41;;;17.23;100.00
2761;BME280;15420;48.636;9.798;2022-07-01T11:05:09;97106.88;;;17.19;100.00
2761;BME280;15420;48.636;9.798;2022-07-01T11:07:39;97098.19;;;17.14;100.00
2761;BME280;15420;48.636;9.798;2022-07-01T11:10:09;97093.88;;;17.11;100.00
2761;BME280;15420;48.636;9.798;2022-07-01T11:12:36;97088.66;;;17.08;100.00
2761;BME280;15420;48.636;9.798;2022-07-01T11:15:06;97089.53;;;17.06;100.00
2761;BME280;15420;48.636;9.798;2022-07-01T11:17:35;97095.59;;;17.05;100.00
2761;BME280;15420;48.636;9.798;2022-07-01T11:20:02;97086.03;;;17.04;100.00
2761;BME280;15420;48.636;9.798;2022-07-01T11:22:33;97075.63;;;17.02;100.00
2761;BME280;15420;48.636;9.798;2022-07-01T11:25:03;97067.81;;;17.02;100.00
2761;BME280;15420;48.636;9.798;2022-07-01T11:27:30;97079.09;;;17.03;100.00
2761;BME280;15420;48.636;9.798;2022-07-01T11:30:01;97081.72;;;17.03;100.00
2761;BME280;15420;48.636;9.798;2022-07-01T11:32:37;97090.38;;;17.05;100.00
2761;BME280;15420;48.636;9.798;2022-07-01T11:35:05;97093.88;;;17.07;100.00
2761;BME280;15420;48.636;9.798;2022-07-01T11:38:05;97082.56;;;17.09;100.00
2761;BME280;15420;48.636;9.798;2022-07-01T11:40:53;97096.47;;;17.11;100.00
2761;BME280;15420;48.636;9.798;2022-07-01T11:43:25;97093.88;;;17.14;100.00
2761;BME280;15420;48.636;9.798;2022-07-01T11:45:52;97109.50;;;17.14;100.00
2761;BME280;15420;48.636;9.798;2022-07-01T11:51:10;97112.09;;;17.14;100.00
2761;BME280;15420;48.636;9.798;2022-07-01T11:53:41;97116.44;;;17.14;100.00
2761;BME280;15420;48.636;9.798;2022-07-01T11:56:10;97115.56;;;17.13;100.00
2761;BME280;15420;48.636;9.798;2022-07-01T12:01:20;97115.56;;;17.09;100.00
2761;BME280;15420;48.636;9.798;2022-07-01T12:03:49;97119.03;;;17.05;100.00
2761;BME280;15420;48.636;9.798;2022-07-01T12:06:19;97118.16;;;17.04;100.00
2761;BME280;15420;48.636;9.798;2022-07-01T12:08:49;97124.22;;;17.03;100.00
2761;BME280;15420;48.636;9.798;2022-07-01T12:11:20;97128.56;;;17.01;100.00
2761;BME280;15420;48.636;9.798;2022-07-01T12:13:48;97128.56;;;16.99;100.00
2761;BME280;15420;48.636;9.798;2022-07-01T12:16:15;97132.91;;;16.99;100.00
2761;BME280;15420;48.636;9.798;2022-07-01T12:21:27;97138.97;;;16.98;100.00
2761;BME280;15420;48.636;9.798;2022-07-01T12:24:09;97143.31;;;17.00;100.00
2761;BME280;15420;48.636;9.798;2022-07-01T12:29:21;97156.34;;;17.00;100.00
2761;BME280;15420;48.636;9.798;2022-07-01T12:34:43;97146.78;;;17.01;100.00
2761;BME280;15420;48.636;9.798;2022-07-01T12:37:20;97145.94;;;17.00;100.00
2761;BME280;15420;48.636;9.798;2022-07-01T12:40:04;97132.91;;;16.99;100.00
2761;BME280;15420;48.636;9.798;2022-07-01T12:42:37;97132.03;;;17.00;100.00
2761;BME280;15420;48.636;9.798;2022-07-01T12:45:13;97130.31;;;16.99;100.00
2761;BME280;15420;48.636;9.798;2022-07-01T12:47:47;97122.50;;;17.00;100.00
2761;BME280;15420;48.636;9.798;2022-07-01T12:50:19;97127.69;;;17.02;100.00
2761;BME280;15420;48.636;9.798;2022-07-01T12:55:42;97112.97;;;17.09;100.00
2761;BME280;15420;48.636;9.798;2022-07-01T12:58:10;97128.59;;;17.15;100.00
2761;BME280;15420;48.636;9.798;2022-07-01T13:00:41;97143.34;;;17.20;100.00
2761;BME280;15420;48.636;9.798;2022-07-01T13:03:08;97132.94;;;17.26;100.00
2761;BME280;15420;48.636;9.798;2022-07-01T13:05:36;97140.75;;;17.39;100.00
2761;BME280;15420;48.636;9.798;2022-07-01T13:08:10;97155.50;;;17.55;100.00
2761;BME280;15420;48.636;9.798;2022-07-01T13:10:37;97154.63;;;17.74;100.00
2761;BME280;15420;48.636;9.798;2022-07-01T13:13:04;97164.16;;;17.95;100.00
2761;BME280;15420;48.636;9.798;2022-07-01T13:15:31;97157.16;;;18.18;100.00
2761;BME280;15420;48.636;9.798;2022-07-01T13:17:58;97156.19;;;18.44;100.00
2761;BME280;15420;48.636;9.798;2022-07-01T13:20:25;97155.09;;;18.89;100.00
2761;BME280;15420;48.636;9.798;2022-07-01T13:22:51;97147.78;;;19.43;100.00
2761;BME280;15420;48.636;9.798;2022-07-01T13:25:17;97146.34;;;20.03;100.00
2761;BME280;15420;48.636;9.798;2022-07-01T13:27:48;97144.81;;;20.64;100.00
2761;BME280;15420;48.636;9.798;2022-07-01T13:30:15;97143.88;;;21.29;96.26
2761;BME280;15420;48.636;9.798;2022-07-01T13:32:44;97137.63;;;21.87;93.01
2761;BME280;15420;48.636;9.798;2022-07-01T13:35:12;97142.03;;;22.34;89.25
2761;BME280;15420;48.636;9.798;2022-07-01T13:37:41;97135.53;;;22.94;86.92
2761;BME280;15420;48.636;9.798;2022-07-01T13:40:10;97143.75;;;23.56;84.49
2761;BME280;15420;48.636;9.798;2022-07-01T13:42:36;97143.38;;;24.03;80.86
2761;BME280;15420;48.636;9.798;2022-07-01T13:45:04;97135.81;;;24.24;76.35
2761;BME280;15420;48.636;9.798;2022-07-01T13:47:30;97138.19;;;24.65;74.29
2761;BME280;15420;48.636;9.798;2022-07-01T13:49:57;97140.88;;;25.21;71.98
2761;BME280;15420;48.636;9.798;2022-07-01T13:52:26;97143.13;;;25.88;69.76
2761;BME280;15420;48.636;9.798;2022-07-01T13:54:57;97140.81;;;26.53;66.22
2761;BME280;15420;48.636;9.798;2022-07-01T13:57:23;97135.91;;;27.13;63.40
2761;BME280;15420;48.636;9.798;2022-07-01T13:59:50;97145.91;;;27.72;61.50